Colman, South Dakota
Current Conditions -  °F | °C
As of 1:50 AM on Thursday 29 Jan 2015 (Local Time) from KMDS Reporting Station
Overcast Overcast  
Wind Chill: 16°   Ceiling: 1200
Heat Index: 30°   Visibility: 10mi
Dew Point: 30°   Wind: 25mph
Humidity: 100%   Direction: 320°NW
Pressure: 30.08"   Gusts: 38mph
Location:  43.98°N, 96.81°W
Report Text: KMDS 290750Z AUTO 32022G33KT 10SM OVC012 M01/M01 A3008 RMK AO2
Loading
Personal Weather Stations






























Interactive Weather Map New forecast layout! Learn more

10-Day Weather Forecast

Advertisements
Track Severe Weather on mobile